35AR weather

Sweet Springs Airport
Searcy, Arkansas, United States

Public forecast

Using degrees Fahrenheit for public forecast. Weather courtesy of forecast.io.

METAR (pilot weather report)

Closest report is Searcy Municipal Airport, 9.1 nm (16.9 km) SE. Retrieved 2019/09/19 04:56 UTC (27 minutes ago):

KSRC 190456Z AUTO 02005KT 10SM CLR 24/19 A2998 RMK AO2 SLP152 T02440194 403720200

TAF (pilot weather forecast)

Forecast is more than 6 hours old.

Closest forecast is Little Rock Air Force Base, 27.3 nm (50.5 km) SSW. Retrieved 2019/09/18 23:03 UTC (6 hours ago):

TAF TAF KLRF 182300Z 1823/2005 08006KT 9999 SCT050 QNH2993INS BECMG 1922/1923 11006KT 9000 -SHRA FEW030 BKN060 QNH2995INS BECMG 2002/2003 12009KT 6000 -SHRA BKN010 OVC035 QNH2993INS TX35/1921Z TN21/1912Z